Time;durP1;ratioP1;P1;durP2;ratioP2;P2;SDS_P1;SDS_P2;PMS_P1;PMS_P2;Temp;Humidity;BMP_temperature;BMP_pressure;BME280_temperature;BME280_humidity;BME280_pressure;Samples;Min_cycle;Max_cycle;Signal;HPM_P1;HPM_P2
2024/04/03 00:00:35;;;;;;;15.10;7.15;;;9.90;99.90;;;;;;5053896;28;20041;-78
2024/04/03 00:03:01;;;;;;;12.23;6.50;;;9.80;99.90;;;;;;5053772;28;20660;-78
2024/04/03 00:05:27;;;;;;;13.38;6.65;;;9.90;99.90;;;;;;5036633;28;20076;-78
2024/04/03 00:07:52;;;;;;;13.82;6.13;;;9.90;99.90;;;;;;5054377;28;20374;-79
2024/04/03 00:10:18;;;;;;;16.55;6.88;;;10.00;99.90;;;;;;5053713;28;20036;-78
2024/04/03 00:12:45;;;;;;;17.70;7.40;;;9.90;99.90;;;;;;5036439;28;20033;-78
2024/04/03 00:15:10;;;;;;;16.55;6.93;;;9.90;99.90;;;;;;5036830;28;20037;-78
2024/04/03 00:17:36;;;;;;;13.98;7.30;;;9.90;99.90;;;;;;5054174;28;20536;-78
2024/04/03 00:20:02;;;;;;;16.10;7.47;;;10.00;99.90;;;;;;5053194;28;20044;-79
2024/04/03 00:22:28;;;;;;;16.98;6.55;;;10.00;99.90;;;;;;5053890;28;20573;-79
2024/04/03 00:24:53;;;;;;;14.32;7.13;;;10.00;99.90;;;;;;5052099;28;20115;-78
2024/04/03 00:27:19;;;;;;;19.92;6.20;;;10.00;99.90;;;;;;5036951;28;20131;-79
2024/04/03 00:29:48;;;;;;;16.73;6.28;;;10.00;99.90;;;;;;5037149;28;20033;-78
2024/04/03 00:32:14;;;;;;;15.20;6.60;;;10.00;99.90;;;;;;5054060;28;20409;-79
2024/04/03 00:34:40;;;;;;;17.25;6.78;;;10.00;99.90;;;;;;5053243;28;20032;-79
2024/04/03 00:37:07;;;;;;;16.85;5.88;;;10.00;99.90;;;;;;5053708;28;20041;-78
2024/04/03 00:39:36;;;;;;;19.90;6.18;;;10.00;99.90;;;;;;5052828;28;20413;-78
2024/04/03 00:42:02;;;;;;;18.15;7.70;;;10.00;99.90;;;;;;5053291;28;20598;-79
2024/04/03 00:44:27;;;;;;;17.20;7.13;;;10.00;99.90;;;;;;5052539;28;20037;-78
2024/04/03 00:46:53;;;;;;;15.95;7.05;;;10.00;99.90;;;;;;5052232;28;20037;-78
2024/04/03 00:49:20;;;;;;;16.30;7.07;;;10.00;99.90;;;;;;5052476;28;20060;-78
2024/04/03 00:51:48;;;;;;;20.05;7.50;;;10.00;99.90;;;;;;5053330;28;20477;-78
2024/04/03 00:54:17;;;;;;;21.60;7.40;;;10.00;99.90;;;;;;5052983;28;20504;-78
2024/04/03 00:56:44;;;;;;;12.80;5.68;;;10.00;99.90;;;;;;5053060;28;20047;-79
2024/04/03 00:59:10;;;;;;;22.13;6.88;;;10.00;99.90;;;;;;5065031;28;20044;-79
2024/04/03 01:01:35;;;;;;;20.65;7.43;;;10.00;99.90;;;;;;5056090;28;20047;-79
2024/04/03 01:04:01;;;;;;;18.13;6.43;;;10.00;99.90;;;;;;5037605;28;20399;-78
2024/04/03 01:06:27;;;;;;;16.90;6.45;;;10.10;99.90;;;;;;5054097;28;20060;-78
2024/04/03 01:08:52;;;;;;;24.75;7.75;;;10.00;99.90;;;;;;5054399;28;20448;-78
2024/04/03 01:11:18;;;;;;;19.98;7.47;;;10.10;99.90;;;;;;5055011;28;20565;-79
2024/04/03 01:13:44;;;;;;;21.20;6.07;;;10.10;99.90;;;;;;5063486;28;20060;-78
2024/04/03 01:16:10;;;;;;;18.80;5.95;;;10.10;99.90;;;;;;5055892;28;20496;-78
2024/04/03 01:18:36;;;;;;;17.85;6.93;;;10.10;99.90;;;;;;5055983;28;20079;-78
2024/04/03 01:21:02;;;;;;;17.50;5.20;;;10.10;99.90;;;;;;5037429;28;20087;-79
2024/04/03 01:23:27;;;;;;;23.17;6.63;;;10.10;99.90;;;;;;5053602;28;20041;-78
2024/04/03 01:25:53;;;;;;;16.25;6.22;;;10.20;99.90;;;;;;5053099;28;20048;-78
2024/04/03 01:28:21;;;;;;;16.00;5.97;;;10.10;99.90;;;;;;5053959;28;20451;-78
2024/04/03 01:30:47;;;;;;;18.02;6.72;;;10.20;99.90;;;;;;5036981;28;20041;-79
2024/04/03 01:33:13;;;;;;;24.90;5.90;;;10.20;99.90;;;;;;5053401;28;20068;-79
2024/04/03 01:35:38;;;;;;;17.33;6.97;;;10.20;99.90;;;;;;5053555;28;20036;-78
2024/04/03 01:38:04;;;;;;;18.63;7.75;;;10.20;99.90;;;;;;5053142;28;20144;-79
2024/04/03 01:40:30;;;;;;;21.15;6.95;;;10.20;99.90;;;;;;5053131;28;20072;-78
2024/04/03 01:42:56;;;;;;;14.80;5.72;;;10.10;99.90;;;;;;5052276;28;20047;-78
2024/04/03 01:45:22;;;;;;;20.70;6.80;;;10.20;99.90;;;;;;5052698;28;20392;-78
2024/04/03 01:47:48;;;;;;;18.65;5.70;;;10.20;99.90;;;;;;5052337;28;20507;-78
2024/04/03 01:50:20;;;;;;;20.05;6.30;;;10.20;99.90;;;;;;5052791;28;20029;-78
2024/04/03 01:52:46;;;;;;;15.30;6.32;;;10.20;99.90;;;;;;5053191;28;20040;-78
2024/04/03 01:55:12;;;;;;;21.70;6.82;;;10.20;99.90;;;;;;5052466;28;20037;-79
2024/04/03 01:57:38;;;;;;;18.45;5.43;;;10.20;99.90;;;;;;5053701;28;20037;-78
2024/04/03 02:00:04;;;;;;;23.23;6.45;;;10.20;99.90;;;;;;5052426;28;20093;-79
2024/04/03 02:02:30;;;;;;;17.55;6.00;;;10.20;99.90;;;;;;5052516;28;20041;-78
2024/04/03 02:04:56;;;;;;;23.25;5.95;;;10.20;99.90;;;;;;5052149;28;20507;-78
2024/04/03 02:07:21;;;;;;;23.35;7.28;;;10.20;99.90;;;;;;5034912;28;20087;-78
2024/04/03 02:09:47;;;;;;;21.83;6.15;;;10.20;99.90;;;;;;5051114;28;20033;-78
2024/04/03 02:12:12;;;;;;;20.27;6.10;;;10.10;99.90;;;;;;5052536;28;20095;-78
2024/04/03 02:14:38;;;;;;;19.15;5.20;;;10.10;99.90;;;;;;5051364;28;20077;-79
2024/04/03 02:17:04;;;;;;;16.90;6.28;;;10.10;99.90;;;;;;5034499;28;20037;-78
2024/04/03 02:19:30;;;;;;;22.58;5.93;;;10.10;99.90;;;;;;5051351;28;20049;-78
2024/04/03 02:21:55;;;;;;;16.58;6.07;;;10.10;99.90;;;;;;5051993;28;20076;-78
2024/04/03 02:24:21;;;;;;;17.77;5.72;;;10.10;99.90;;;;;;5052224;28;20094;-78
2024/04/03 02:26:47;;;;;;;18.00;5.45;;;10.10;99.90;;;;;;5051727;28;20041;-78
2024/04/03 02:29:15;;;;;;;13.25;4.55;;;10.10;99.90;;;;;;5052896;28;20036;-79
2024/04/03 02:31:41;;;;;;;18.42;5.63;;;10.10;99.90;;;;;;5052004;28;20048;-78
2024/04/03 02:34:08;;;;;;;17.25;5.63;;;10.10;99.90;;;;;;5050342;28;20037;-78
2024/04/03 02:36:33;;;;;;;14.05;5.18;;;10.00;99.90;;;;;;5051891;28;20524;-78
2024/04/03 02:38:59;;;;;;;14.73;5.30;;;10.00;99.90;;;;;;5051953;28;20089;-78
2024/04/03 02:41:25;;;;;;;20.20;5.45;;;10.00;99.90;;;;;;5051794;28;20037;-79
2024/04/03 02:43:51;;;;;;;14.68;5.28;;;10.00;99.90;;;;;;5051389;28;20051;-78
2024/04/03 02:46:17;;;;;;;18.23;5.60;;;10.00;99.90;;;;;;5050965;28;20056;-78
2024/04/03 02:48:42;;;;;;;15.57;5.78;;;10.00;99.90;;;;;;5051942;28;20041;-78
2024/04/03 02:51:11;;;;;;;17.77;5.82;;;9.90;99.90;;;;;;5034306;28;20040;-78
2024/04/03 02:53:37;;;;;;;19.83;6.20;;;9.90;99.90;;;;;;5050954;28;20071;-78
2024/04/03 02:56:07;;;;;;;15.63;5.80;;;9.90;99.90;;;;;;5051938;28;20056;-79
2024/04/03 02:58:34;;;;;;;20.98;6.18;;;9.90;99.90;;;;;;5052388;28;20122;-78
2024/04/03 03:01:07;;;;;;;17.30;5.35;;;9.80;99.90;;;;;;5051846;28;20053;-79
2024/04/03 03:03:33;;;;;;;;;;;9.90;99.90;;;;;;5051344;28;20049;-79
2024/04/03 03:06:00;;;;;;;16.58;6.03;;;9.80;99.90;;;;;;5053082;28;19978;-79
2024/04/03 03:08:30;;;;;;;14.13;4.88;;;9.80;99.90;;;;;;5055691;28;20052;-78
2024/04/03 03:10:57;;;;;;;20.60;5.30;;;9.80;99.90;;;;;;5055539;28;20040;-79
2024/04/03 03:13:26;;;;;;;12.77;5.68;;;9.80;99.90;;;;;;5038110;28;20033;-78
2024/04/03 03:15:53;;;;;;;17.75;5.15;;;9.80;99.90;;;;;;5038658;28;20040;-78
2024/04/03 03:18:20;;;;;;;13.00;5.10;;;9.80;99.90;;;;;;5039207;28;20044;-79
2024/04/03 03:20:50;;;;;;;16.85;5.13;;;9.80;99.90;;;;;;5054836;28;20431;-79
2024/04/03 03:23:16;;;;;;;14.75;5.65;;;9.70;99.90;;;;;;5055095;28;20083;-79
2024/04/03 03:25:43;;;;;;;15.68;6.25;;;9.70;99.90;;;;;;5054134;28;20079;-78
2024/04/03 03:28:09;;;;;;;14.60;5.45;;;9.70;99.90;;;;;;5055463;28;20136;-78
2024/04/03 03:30:35;;;;;;;15.25;5.18;;;9.70;99.90;;;;;;5054809;28;20037;-78
2024/04/03 03:33:01;;;;;;;18.60;5.30;;;9.70;99.90;;;;;;5055007;28;20416;-78
2024/04/03 03:35:27;;;;;;;13.73;5.18;;;9.80;99.90;;;;;;5038590;28;20519;-78
2024/04/03 03:37:53;;;;;;;16.50;5.15;;;9.70;99.90;;;;;;5054768;28;20040;-78
2024/04/03 03:40:18;;;;;;;15.65;5.80;;;9.80;99.90;;;;;;5038363;28;20032;-78
2024/04/03 03:42:44;;;;;;;15.50;5.45;;;9.70;99.90;;;;;;5037653;28;20535;-78
2024/04/03 03:45:14;;;;;;;18.45;5.47;;;9.70;99.90;;;;;;5053074;28;20049;-79
2024/04/03 03:47:40;;;;;;;21.40;5.85;;;9.70;99.90;;;;;;5053052;28;20053;-80
2024/04/03 03:52:50;;;;;;;18.40;5.30;;;9.70;99.90;;;;;;5052804;28;20049;-79
2024/04/03 03:55:15;;;;;;;16.80;6.28;;;9.70;99.90;;;;;;5053824;28;20033;-79
2024/04/03 03:57:41;;;;;;;24.00;6.05;;;9.80;99.90;;;;;;5056369;28;20036;-79
2024/04/03 04:00:07;;;;;;;10.93;5.13;;;9.70;99.90;;;;;;5057290;28;20037;-79
2024/04/03 04:02:33;;;;;;;13.45;5.07;;;9.70;99.90;;;;;;5054152;28;20047;-80
2024/04/03 04:04:59;;;;;;;15.98;5.68;;;9.70;99.90;;;;;;5037425;28;20299;-79
2024/04/03 04:07:25;;;;;;;18.08;6.38;;;9.70;99.90;;;;;;5053515;28;20473;-79
2024/04/03 04:09:51;;;;;;;13.38;5.05;;;9.70;99.90;;;;;;5052837;28;20037;-79
2024/04/03 04:12:18;;;;;;;15.00;5.43;;;9.60;99.90;;;;;;5036874;28;20041;-79
2024/04/03 04:14:52;;;;;;;19.83;6.30;;;9.60;99.90;;;;;;5058772;28;20104;-80
2024/04/03 04:17:19;;;;;;;15.48;5.88;;;9.60;99.90;;;;;;5056957;28;20037;-80
2024/04/03 04:19:45;;;;;;;22.52;6.80;;;9.60;99.90;;;;;;5055469;28;20041;-81
2024/04/03 04:22:11;;;;;;;20.30;5.63;;;9.50;99.90;;;;;;5055543;28;20040;-80
2024/04/03 04:24:38;;;;;;;15.15;6.03;;;9.50;99.90;;;;;;5037641;28;20051;-80
2024/04/03 04:27:07;;;;;;;14.32;5.65;;;9.60;99.90;;;;;;5053434;28;20487;-81
2024/04/03 04:29:37;;;;;;;14.45;5.35;;;9.50;99.90;;;;;;5054196;28;20037;-80
2024/04/03 04:32:04;;;;;;;14.60;5.47;;;9.50;99.90;;;;;;5053868;28;20068;-81
2024/04/03 04:34:29;;;;;;;13.30;6.13;;;9.50;99.90;;;;;;5037049;28;20037;-81
2024/04/03 04:36:55;;;;;;;15.50;5.53;;;9.50;99.90;;;;;;5037362;28;20525;-81
2024/04/03 04:39:21;;;;;;;22.00;6.43;;;9.50;99.90;;;;;;5053678;28;20047;-80
2024/04/03 04:41:50;;;;;;;17.00;5.93;;;9.50;99.90;;;;;;5053756;28;20045;-81
2024/04/03 04:44:17;;;;;;;17.35;5.90;;;9.50;99.90;;;;;;5036725;28;20115;-80
2024/04/03 04:46:44;;;;;;;13.82;6.32;;;9.50;99.90;;;;;;5053702;28;20056;-80
2024/04/03 04:49:09;;;;;;;20.25;5.88;;;9.50;99.90;;;;;;5054316;28;20041;-80
2024/04/03 04:51:35;;;;;;;16.63;6.25;;;9.50;99.90;;;;;;5053151;28;20512;-80
2024/04/03 04:54:00;;;;;;;17.08;5.93;;;9.50;99.90;;;;;;5053407;28;20037;-80
2024/04/03 04:56:26;;;;;;;16.15;6.28;;;9.40;99.90;;;;;;5053504;28;20638;-80
2024/04/03 04:58:52;;;;;;;20.17;6.40;;;9.50;99.90;;;;;;5052699;28;20131;-78
2024/04/03 05:01:17;;;;;;;14.10;6.65;;;9.40;99.90;;;;;;5051483;28;20053;-78
2024/04/03 05:03:43;;;;;;;22.90;6.93;;;9.40;99.90;;;;;;5051027;28;20032;-78
2024/04/03 05:06:14;;;;;;;20.77;6.30;;;9.40;99.90;;;;;;5051364;28;20037;-78
2024/04/03 05:08:40;;;;;;;16.33;6.50;;;9.40;99.90;;;;;;5051424;28;20052;-79
2024/04/03 05:11:07;;;;;;;21.27;7.20;;;9.40;99.90;;;;;;5034546;28;20037;-78
2024/04/03 05:13:33;;;;;;;18.52;6.10;;;9.40;99.90;;;;;;5050848;28;20069;-79
2024/04/03 05:16:09;;;;;;;17.90;6.18;;;9.40;99.90;;;;;;5050886;28;20052;-79
2024/04/03 05:18:35;;;;;;;14.45;6.25;;;9.40;99.90;;;;;;5051269;28;20420;-78
2024/04/03 05:21:01;;;;;;;18.58;6.85;;;9.40;99.90;;;;;;5034052;28;20072;-78
2024/04/03 05:23:28;;;;;;;18.00;7.43;;;9.40;99.90;;;;;;5051037;28;20032;-78
2024/04/03 05:26:10;;;;;;;19.33;6.93;;;9.40;99.90;;;;;;5050875;28;20041;-78
2024/04/03 05:28:36;;;;;;;18.00;7.45;;;9.40;99.90;;;;;;5050060;28;20037;-78
2024/04/03 05:31:10;;;;;;;15.25;7.22;;;9.40;99.90;;;;;;5051089;28;20088;-78
2024/04/03 05:33:37;;;;;;;21.25;7.72;;;9.40;99.90;;;;;;5051108;28;20110;-78
2024/04/03 05:36:05;;;;;;;20.60;8.45;;;9.20;99.90;;;;;;5034212;28;20091;-78
2024/04/03 05:38:31;;;;;;;25.52;9.15;;;9.30;99.90;;;;;;5051140;28;20084;-79
2024/04/03 05:40:56;;;;;;;15.63;7.90;;;9.20;99.90;;;;;;5050704;28;20077;-79
2024/04/03 05:43:23;;;;;;;17.08;8.73;;;9.30;99.90;;;;;;5051251;28;20040;-78
2024/04/03 05:45:53;;;;;;;20.80;10.32;;;9.30;99.90;;;;;;5051142;28;20041;-78
2024/04/03 05:48:23;;;;;;;24.02;8.70;;;9.30;99.90;;;;;;5094495;22;20048;-79
2024/04/03 05:51:18;;;;;;;19.20;8.63;;;9.30;99.90;;;;;;5078403;28;20060;-79
2024/04/03 05:53:43;;;;;;;17.33;8.70;;;9.30;99.90;;;;;;5051926;28;20041;-78
2024/04/03 05:56:09;;;;;;;16.60;8.18;;;9.30;99.90;;;;;;5076097;28;20040;-78
2024/04/03 05:58:35;;;;;;;23.80;10.73;;;9.30;99.90;;;;;;5079052;28;20037;-79
2024/04/03 06:01:03;;;;;;;19.70;9.27;;;9.30;99.90;;;;;;5079258;28;20147;-79
2024/04/03 06:03:29;;;;;;;23.30;9.55;;;9.30;99.90;;;;;;5063469;28;20040;-81
2024/04/03 06:05:57;;;;;;;16.52;8.70;;;9.30;99.90;;;;;;5079055;28;20052;-81
2024/04/03 06:08:23;;;;;;;20.73;10.00;;;9.30;99.90;;;;;;5081418;28;20078;-81
2024/04/03 06:10:49;;;;;;;19.88;9.52;;;9.30;99.90;;;;;;5065127;28;20068;-81
2024/04/03 06:13:15;;;;;;;23.13;9.75;;;9.30;99.90;;;;;;5086318;28;20050;-81
2024/04/03 06:15:40;;;;;;;16.70;8.60;;;9.30;99.90;;;;;;5082235;28;20051;-81
2024/04/03 06:18:06;;;;;;;19.40;9.90;;;9.30;99.90;;;;;;5080170;28;20454;-78
2024/04/03 06:20:32;;;;;;;21.23;10.43;;;9.30;99.90;;;;;;5062388;28;20470;-78
2024/04/03 06:22:58;;;;;;;19.05;9.60;;;9.20;99.90;;;;;;5058387;28;20404;-78
2024/04/03 06:25:24;;;;;;;18.52;9.75;;;9.30;99.90;;;;;;5078044;28;20059;-78
2024/04/03 06:27:50;;;;;;;21.58;10.25;;;9.30;99.90;;;;;;5059915;28;20032;-78
2024/04/03 06:30:15;;;;;;;23.13;11.02;;;9.30;99.90;;;;;;5077424;28;20048;-79
2024/04/03 06:32:42;;;;;;;22.88;10.38;;;9.30;99.90;;;;;;5062020;28;20041;-81
2024/04/03 06:35:08;;;;;;;21.58;10.95;;;9.40;99.90;;;;;;5081249;28;20059;-83
2024/04/03 06:37:34;;;;;;;18.63;9.98;;;9.40;99.90;;;;;;5062652;28;20037;-80
2024/04/03 06:39:59;;;;;;;21.70;10.88;;;9.40;99.90;;;;;;5080285;28;20098;-79
2024/04/03 06:42:25;;;;;;;18.15;10.13;;;9.40;99.90;;;;;;5087330;28;20036;-80
2024/04/03 06:44:52;;;;;;;20.65;11.00;;;9.40;99.90;;;;;;5089969;28;20076;-79
2024/04/03 06:47:18;;;;;;;20.05;10.23;;;9.50;99.90;;;;;;5089713;28;20041;-79
2024/04/03 06:49:44;;;;;;;21.05;10.35;;;9.40;99.90;;;;;;5089714;28;20044;-80
2024/04/03 06:52:09;;;;;;;20.35;11.05;;;9.40;99.90;;;;;;5072918;28;20063;-80
2024/04/03 06:54:35;;;;;;;25.92;12.55;;;9.40;99.90;;;;;;5087674;28;20494;-78
2024/04/03 06:57:04;;;;;;;22.52;10.23;;;9.40;99.90;;;;;;5090773;28;20048;-79
2024/04/03 06:59:31;;;;;;;21.40;11.55;;;9.50;99.90;;;;;;5088509;28;20037;-79
2024/04/03 07:01:57;;;;;;;18.85;11.05;;;9.50;99.90;;;;;;5089077;28;20115;-78
2024/04/03 07:04:23;;;;;;;22.60;10.85;;;9.50;99.90;;;;;;5089991;28;20045;-81
2024/04/03 07:06:49;;;;;;;24.30;13.77;;;9.50;99.90;;;;;;5088849;28;20041;-82
2024/04/03 07:09:14;;;;;;;23.48;12.85;;;9.50;99.90;;;;;;5087580;28;20136;-81
2024/04/03 07:11:40;;;;;;;28.30;13.65;;;9.50;99.90;;;;;;5069780;28;20492;-81
2024/04/03 07:14:06;;;;;;;27.58;14.40;;;9.50;99.90;;;;;;5087189;28;20500;-81
2024/04/03 07:16:31;;;;;;;27.00;15.07;;;9.50;99.90;;;;;;5086665;28;20044;-80
2024/04/03 07:18:57;;;;;;;20.63;13.05;;;9.60;99.90;;;;;;5086265;28;20439;-81
2024/04/03 07:21:23;;;;;;;26.50;13.30;;;9.60;99.90;;;;;;5090541;28;20038;-81
2024/04/03 07:23:49;;;;;;;24.35;14.07;;;9.50;99.90;;;;;;5078542;28;20096;-79
2024/04/03 07:26:19;;;;;;;25.55;14.32;;;9.60;99.90;;;;;;5093540;28;20078;-79
2024/04/03 07:28:45;;;;;;;25.30;13.65;;;9.60;99.90;;;;;;5105717;28;20143;-79
2024/04/03 07:31:10;;;;;;;23.30;13.57;;;9.60;99.90;;;;;;5103303;28;20066;-79
2024/04/03 07:33:36;;;;;;;28.13;14.52;;;9.70;99.90;;;;;;5102459;28;20028;-79
2024/04/03 07:36:01;;;;;;;26.27;15.55;;;9.70;99.90;;;;;;5103723;28;20040;-79
2024/04/03 07:38:27;;;;;;;26.50;14.73;;;9.70;99.90;;;;;;5083887;28;20043;-80
2024/04/03 07:40:54;;;;;;;26.88;15.13;;;9.70;99.90;;;;;;5105346;28;20086;-81
2024/04/03 07:43:20;;;;;;;27.42;16.73;;;9.70;99.90;;;;;;5085181;28;20040;-81
2024/04/03 07:45:46;;;;;;;23.23;14.38;;;9.70;99.90;;;;;;5101152;28;20044;-78
2024/04/03 07:48:11;;;;;;;26.15;15.00;;;9.80;99.90;;;;;;5097119;28;20044;-74
2024/04/03 07:50:39;;;;;;;20.35;13.48;;;9.80;99.90;;;;;;5093996;28;20040;-75
2024/04/03 07:53:07;;;;;;;28.65;15.95;;;9.90;99.90;;;;;;5091843;28;20450;-76
2024/04/03 07:55:35;;;;;;;33.28;17.10;;;9.80;99.90;;;;;;5093098;28;20066;-76
2024/04/03 07:58:02;;;;;;;31.60;15.23;;;9.90;99.90;;;;;;5092790;28;20044;-76
2024/04/03 08:00:27;;;;;;;26.13;15.23;;;9.90;99.90;;;;;;5095015;28;20428;-77
2024/04/03 08:02:53;;;;;;;25.02;15.07;;;10.00;99.90;;;;;;5089743;28;20032;-74
2024/04/03 08:05:19;;;;;;;22.90;13.85;;;10.00;99.90;;;;;;5072419;28;20076;-76
2024/04/03 08:07:45;;;;;;;26.25;13.73;;;10.20;99.90;;;;;;5055628;28;20270;-74
2024/04/03 08:10:11;;;;;;;21.90;13.85;;;10.30;99.90;;;;;;5055824;28;20063;-74
2024/04/03 08:12:39;;;;;;;22.75;13.07;;;10.30;99.90;;;;;;5071980;28;20040;-74
2024/04/03 08:15:06;;;;;;;19.10;12.00;;;10.40;99.90;;;;;;5055747;28;20082;-74
2024/04/03 08:17:32;;;;;;;16.40;10.85;;;10.50;99.90;;;;;;5072294;28;20509;-74
2024/04/03 08:19:58;;;;;;;21.85;12.15;;;10.50;99.90;;;;;;5071895;28;20041;-74
2024/04/03 08:22:24;;;;;;;18.33;11.30;;;10.60;99.90;;;;;;5072460;28;20085;-74
2024/04/03 08:24:51;;;;;;;19.48;11.68;;;10.60;99.90;;;;;;5064984;28;20123;-74
2024/04/03 08:27:18;;;;;;;17.88;10.45;;;10.70;99.90;;;;;;5081761;28;20044;-74
2024/04/03 08:29:46;;;;;;;17.10;10.65;;;10.70;99.90;;;;;;5080518;28;20035;-74
2024/04/03 08:32:14;;;;;;;19.77;11.15;;;10.80;99.90;;;;;;5052096;28;20048;-74
2024/04/03 08:34:39;;;;;;;12.93;9.48;;;10.80;99.90;;;;;;5051834;28;20045;-74
2024/04/03 08:37:06;;;;;;;14.43;9.07;;;10.80;99.90;;;;;;5052236;28;20032;-74
2024/04/03 08:39:32;;;;;;;16.42;9.13;;;10.90;99.90;;;;;;5051930;28;20427;-74
2024/04/03 08:41:59;;;;;;;12.45;9.02;;;10.90;99.90;;;;;;5051986;28;20049;-74
2024/04/03 08:44:28;;;;;;;12.88;7.93;;;10.90;99.90;;;;;;5051494;28;20080;-74
2024/04/03 08:46:55;;;;;;;10.77;7.70;;;10.90;99.90;;;;;;5051558;28;20390;-74
2024/04/03 08:49:23;;;;;;;10.95;7.30;;;11.00;99.90;;;;;;5051547;28;20040;-75
2024/04/03 08:52:02;;;;;;;11.63;7.32;;;11.00;99.90;;;;;;5051889;28;20037;-74
2024/04/03 08:54:28;;;;;;;9.57;7.18;;;11.20;99.90;;;;;;5052658;28;20072;-74
2024/04/03 08:56:56;;;;;;;10.15;6.60;;;11.20;99.90;;;;;;5051444;28;20083;-74
2024/04/03 08:59:22;;;;;;;11.85;6.60;;;11.30;99.90;;;;;;5050158;28;20056;-77
2024/04/03 09:01:49;;;;;;;9.30;6.55;;;11.30;99.90;;;;;;5058821;28;20091;-75
2024/04/03 09:04:16;;;;;;;8.85;6.60;;;11.40;99.90;;;;;;5064278;28;20033;-74
2024/04/03 09:06:43;;;;;;;9.85;6.00;;;11.40;99.90;;;;;;5070753;28;20044;-74
2024/04/03 09:09:20;;;;;;;9.30;6.22;;;11.40;99.90;;;;;;5072391;28;20569;-74
2024/04/03 09:11:48;;;;;;;9.38;6.18;;;11.60;99.90;;;;;;5070950;28;20036;-74
2024/04/03 09:14:26;;;;;;;8.82;4.75;;;11.60;99.90;;;;;;5053640;28;20514;-74
2024/04/03 09:16:58;;;;;;;6.85;4.72;;;11.60;99.90;;;;;;5071783;28;20044;-74
2024/04/03 09:19:24;;;;;;;7.90;5.60;;;11.60;99.90;;;;;;5070376;28;20047;-74
2024/04/03 09:21:50;;;;;;;8.82;5.68;;;11.70;99.90;;;;;;5074773;28;20114;-75
2024/04/03 09:24:15;;;;;;;6.65;4.90;;;11.60;99.90;;;;;;5085499;28;20032;-74
2024/04/03 09:26:45;;;;;;;7.85;5.22;;;11.70;99.90;;;;;;5075419;28;20048;-74
2024/04/03 09:29:15;;;;;;;9.00;5.60;;;11.70;99.90;;;;;;5077317;28;20099;-74
2024/04/03 09:31:42;;;;;;;9.65;4.70;;;11.70;99.90;;;;;;5076035;28;20032;-74
2024/04/03 09:34:09;;;;;;;8.38;5.00;;;11.90;99.90;;;;;;5078265;28;20055;-74
2024/04/03 09:36:35;;;;;;;7.30;4.90;;;11.90;99.90;;;;;;5077821;28;20036;-74
2024/04/03 09:39:02;;;;;;;7.88;5.15;;;12.00;99.90;;;;;;5079662;28;20036;-76
2024/04/03 09:41:30;;;;;;;6.28;4.85;;;12.00;99.90;;;;;;5075267;28;20039;-76
2024/04/03 09:44:02;;;;;;;7.93;4.80;;;12.10;99.90;;;;;;5073430;28;20036;-77
2024/04/03 09:46:51;;;;;;;7.60;4.78;;;12.10;99.90;;;;;;5070268;28;20110;-77
2024/04/03 09:49:22;;;;;;;6.53;4.57;;;12.10;99.90;;;;;;5083400;28;20572;-77
2024/04/03 09:51:50;;;;;;;7.55;4.85;;;12.10;99.90;;;;;;5070343;28;20045;-79
2024/04/03 09:54:17;;;;;;;6.88;4.38;;;12.10;99.90;;;;;;5071195;28;20041;-76
2024/04/03 09:56:43;;;;;;;6.43;3.97;;;12.00;99.90;;;;;;5069742;28;20067;-76
2024/04/03 09:59:10;;;;;;;5.30;3.97;;;12.00;99.90;;;;;;5070336;28;20725;-76
2024/04/03 10:01:36;;;;;;;10.25;4.55;;;12.10;99.90;;;;;;5069809;28;20068;-76
2024/04/03 10:04:03;;;;;;;6.05;3.97;;;12.10;99.90;;;;;;5069998;28;20076;-76
2024/04/03 10:06:35;;;;;;;5.85;3.47;;;12.00;99.90;;;;;;5069943;28;20076;-76
2024/04/03 10:09:15;;;;;;;4.82;3.33;;;12.10;99.90;;;;;;5075412;28;20037;-81
2024/04/03 10:11:47;;;;;;;6.30;4.10;;;12.20;99.90;;;;;;5073454;28;20404;-81
2024/04/03 10:14:30;;;;;;;4.88;3.58;;;12.20;99.90;;;;;;5056469;28;20044;-80
2024/04/03 10:16:56;;;;;;;5.88;3.65;;;12.30;99.90;;;;;;5074550;28;20081;-79
2024/04/03 10:19:31;;;;;;;5.00;3.47;;;12.30;99.90;;;;;;5074810;28;20048;-78
2024/04/03 10:22:02;;;;;;;4.65;3.78;;;12.30;99.90;;;;;;5073973;28;20052;-77
2024/04/03 10:24:32;;;;;;;5.00;3.05;;;12.30;99.90;;;;;;5056414;28;20040;-78
2024/04/03 10:26:58;;;;;;;4.43;2.92;;;12.40;99.90;;;;;;5073198;28;20622;-79
2024/04/03 10:29:24;;;;;;;4.63;3.00;;;12.50;99.90;;;;;;5072662;28;20040;-79
2024/04/03 10:31:50;;;;;;;5.40;3.08;;;12.50;99.90;;;;;;5073290;28;20032;-79
2024/04/03 10:34:19;;;;;;;4.32;3.15;;;12.50;99.90;;;;;;5069793;28;20036;-77
2024/04/03 10:36:46;;;;;;;5.60;3.58;;;12.50;99.90;;;;;;5070022;28;20044;-77
2024/04/03 10:39:12;;;;;;;4.88;3.17;;;12.50;99.90;;;;;;5073311;28;20111;-78
2024/04/03 10:41:39;;;;;;;5.32;2.80;;;12.50;99.90;;;;;;5055953;28;20032;-78
2024/04/03 10:44:11;;;;;;;2.90;2.60;;;12.60;99.90;;;;;;5072510;28;20041;-80
2024/04/03 10:46:37;;;;;;;2.90;2.55;;;12.60;99.90;;;;;;5072984;28;20496;-79
2024/04/03 10:49:04;;;;;;;3.90;2.85;;;12.60;99.90;;;;;;5072809;28;20158;-79
2024/04/03 10:51:30;;;;;;;4.57;2.72;;;12.60;99.90;;;;;;5074548;28;20062;-79
2024/04/03 10:53:56;;;;;;;3.28;2.92;;;12.70;99.90;;;;;;5073253;28;20107;-80
2024/04/03 10:56:27;;;;;;;5.15;3.03;;;12.80;99.90;;;;;;5073992;28;20458;-80
2024/04/03 10:58:56;;;;;;;6.38;3.50;;;12.80;99.90;;;;;;5071726;28;20044;-79
2024/04/03 11:01:21;;;;;;;6.70;5.20;;;12.90;99.90;;;;;;5054665;28;20052;-79
2024/04/03 11:03:51;;;;;;;4.30;3.90;;;12.90;99.90;;;;;;5055828;28;20094;-79
2024/04/03 11:06:16;;;;;;;7.45;5.25;;;12.90;99.90;;;;;;5072569;28;20048;-79
2024/04/03 11:08:42;;;;;;;4.97;4.50;;;12.90;99.90;;;;;;5074359;28;20044;-79
2024/04/03 11:11:09;;;;;;;8.45;5.30;;;12.90;99.90;;;;;;5076151;28;20024;-78
2024/04/03 11:13:35;;;;;;;7.53;6.18;;;12.90;99.90;;;;;;5082153;28;20036;-79
2024/04/03 11:16:01;;;;;;;8.38;5.45;;;12.90;99.90;;;;;;5085453;28;20040;-79
2024/04/03 11:18:27;;;;;;;8.50;6.00;;;12.90;99.90;;;;;;5083718;28;20040;-78
2024/04/03 11:20:53;;;;;;;7.30;5.95;;;12.90;99.90;;;;;;5084004;28;20067;-78
2024/04/03 11:23:18;;;;;;;7.22;5.75;;;12.80;99.90;;;;;;5082850;28;20495;-78
2024/04/03 11:25:44;;;;;;;9.88;6.38;;;12.80;99.90;;;;;;5084008;28;20036;-78
2024/04/03 11:28:12;;;;;;;8.93;6.18;;;12.80;99.90;;;;;;5076338;28;20036;-79
2024/04/03 11:30:39;;;;;;;8.27;5.72;;;12.60;99.90;;;;;;5059891;28;20116;-79
2024/04/03 11:33:06;;;;;;;11.18;6.07;;;12.60;99.90;;;;;;5087440;28;20036;-79
2024/04/03 11:35:32;;;;;;;11.00;6.15;;;12.50;99.90;;;;;;5077041;28;20048;-79
2024/04/03 11:38:00;;;;;;;9.57;6.72;;;12.50;99.90;;;;;;5076187;28;20037;-79
2024/04/03 11:40:27;;;;;;;8.98;6.93;;;12.40;99.90;;;;;;5077484;28;20036;-78
2024/04/03 11:42:52;;;;;;;10.77;6.95;;;12.40;99.90;;;;;;5077431;28;20131;-78
2024/04/03 11:45:18;;;;;;;10.13;6.97;;;12.40;99.90;;;;;;5078580;28;20128;-80
2024/04/03 11:47:44;;;;;;;9.80;7.07;;;12.40;99.90;;;;;;5088992;22;20041;-77
2024/04/03 11:50:09;;;;;;;10.60;6.75;;;12.40;99.90;;;;;;5052791;28;20488;-76
2024/04/03 11:52:36;;;;;;;6.90;5.65;;;12.40;99.90;;;;;;5052117;28;20814;-75
2024/04/03 11:55:03;;;;;;;8.95;5.88;;;12.30;99.90;;;;;;5035782;28;20048;-76
2024/04/03 11:57:28;;;;;;;7.75;5.75;;;12.30;99.90;;;;;;5050515;28;20049;-76
2024/04/03 11:59:55;;;;;;;7.05;5.55;;;12.40;99.90;;;;;;5032386;28;20048;-76
2024/04/03 12:02:22;;;;;;;7.45;5.70;;;12.40;99.90;;;;;;5016190;28;20063;-76
2024/04/03 12:04:48;;;;;;;9.57;6.47;;;12.50;99.90;;;;;;5031973;28;20034;-76
2024/04/03 12:07:14;;;;;;;7.70;5.65;;;12.60;99.90;;;;;;5039857;28;20041;-76
2024/04/03 12:09:42;;;;;;;8.02;5.85;;;12.70;99.90;;;;;;5040388;28;20050;-76
2024/04/03 12:12:09;;;;;;;7.97;6.50;;;12.80;99.90;;;;;;5032633;28;20041;-76
2024/04/03 12:14:35;;;;;;;7.35;5.82;;;12.90;99.90;;;;;;5031781;28;20081;-76
2024/04/03 12:17:03;;;;;;;13.63;8.45;;;12.90;99.90;;;;;;5032132;28;20617;-76
2024/04/03 12:19:44;;;;;;;9.63;8.18;;;13.00;99.90;;;;;;5042033;28;20044;-76
2024/04/03 12:22:12;;;;;;;11.55;7.15;;;13.00;99.90;;;;;;5036556;28;20041;-76
2024/04/03 12:24:38;;;;;;;13.60;8.80;;;13.00;99.90;;;;;;5031622;28;20045;-76
2024/04/03 12:27:03;;;;;;;7.28;5.13;;;12.90;99.90;;;;;;5031942;28;20129;-76
2024/04/03 12:29:30;;;;;;;5.15;4.13;;;12.90;99.90;;;;;;5015533;28;20069;-77
2024/04/03 12:31:55;;;;;;;6.38;4.38;;;12.80;99.90;;;;;;5020696;28;20037;-76
2024/04/03 12:34:21;;;;;;;7.80;4.75;;;12.80;99.90;;;;;;5051002;28;20078;-76
2024/04/03 12:36:47;;;;;;;5.80;4.85;;;12.80;99.90;;;;;;5051575;28;20033;-76
2024/04/03 12:39:12;;;;;;;7.60;5.88;;;12.80;99.90;;;;;;5035965;28;20550;-77
2024/04/03 12:41:38;;;;;;;7.82;4.68;;;12.80;99.90;;;;;;5015373;28;20047;-76
2024/04/03 12:44:04;;;;;;;5.60;4.30;;;12.80;99.90;;;;;;5031455;28;20049;-77